Flight Track Log - Related Links

Times and Time Zones

All times are in EST time to prevent confusion due to time zone crossing. See the SWA4254 flight status page for this flight to view local times or setup timezone preferences in your user account.

Time Position Orientation Groundspeed Altitude Reporting Facility
EST Latitude Longitude Course Direction KTS MPH feet Rate Location/Type
Sat 03:16:23 PM 37.6667 -122.3167 67° East 195 224 2,900  Level Northern TRACON
Sat 03:17:18 PM 37.7000 -122.2667 50° Northeast 200 230 5,100 2,713 Climbing Northern TRACON
Sat 03:18:18 PM 37.7333 -122.1833 63° Northeast 264 304 8,100 2,591 Climbing Northern TRACON
Sat 03:20:14 PM 37.7819 -122.0161 70° East 312 359 12,700 2,644 Climbing Oakland Center
Sat 03:21:00 PM 37.8681 -121.4917 67° East  Level Estimated
Sat 03:21:15 PM 37.8164 -121.8969 70° East 358 412 15,900  Level Oakland Center
Sat 03:22:17 PM 37.8592 -121.7553 69° East 362 417 19,200 2,710 Climbing Oakland Center
Sat 03:23:19 PM 37.8908 -121.6439 70° East 370 426 21,500 2,177 Climbing Oakland Center
Sat 03:24:21 PM 37.9281 -121.5158 70° East 387 445 23,700 2,390 Climbing Oakland Center
Sat 03:25:22 PM 37.9739 -121.3558 70° East 403 464 26,400 2,439 Climbing Oakland Center
Sat 03:26:24 PM 38.0117 -121.2242 70° East 402 463 28,700 2,129 Climbing Oakland Center
Sat 03:27:26 PM 38.0442 -121.0886 73° East 404 465 30,800 2,049 Climbing Oakland Center
Sat 03:28:27 PM 38.0789 -120.9581 71° East 395 455 32,900 1,659 Climbing Oakland Center
Sat 03:29:29 PM 38.1122 -120.8286 72° East 389 448 34,200 1,065 Climbing Oakland Center
Sat 03:30:31 PM 38.1453 -120.6939 73° East 399 459 35,100 927 Climbing Oakland Center
Sat 03:31:32 PM 38.1881 -120.5258 72° East 417 480 36,100 732 Climbing Oakland Center
Sat 03:32:34 PM 38.2231 -120.3850 72° East 419 482 36,600 435 Climbing Oakland Center
Sat 03:33:36 PM 38.2583 -120.2411 73° East 427 491 37,000 195 Climbing Oakland Center
Sat 03:34:37 PM 38.2964 -120.0942 72° East 437 503 37,000  Level Oakland Center
Sat 03:35:39 PM 38.3339 -119.9461 72° East 441 507 37,000  Level Oakland Center
Sat 03:36:41 PM 38.3694 -119.7958 73° East 443 510 37,000  Level Oakland Center
Sat 03:37:42 PM 38.4053 -119.6464 73° East 442 509 37,000  Level Oakland Center
Sat 03:38:44 PM 38.4447 -119.4875 72° East 435 501 37,000  Level Oakland Center
Sat 03:39:45 PM 38.4789 -119.3375 74° East 441 507 37,000  Level Oakland Center
Sat 03:40:47 PM 38.5153 -119.1928 72° East 433 498 37,000  Level Oakland Center
Sat 03:41:49 PM 38.5572 -119.0161 73° East 436 502 37,000  Level Oakland Center
Sat 03:42:50 PM 38.5919 -118.8678 73° East 438 504 37,000  Level Oakland Center
Sat 03:43:52 PM 38.6261 -118.7192 74° East 438 504 37,000  Level Oakland Center
Sat 03:44:54 PM 38.6611 -118.5714 73° East 437 503 37,000  Level Oakland Center
Sat 03:45:55 PM 38.6950 -118.4219 74° East 439 505 37,000  Level Oakland Center
Sat 03:46:57 PM 38.7303 -118.2700 73° East 445 512 37,000  Level Oakland Center
Sat 03:47:58 PM 38.7658 -118.1167 73° East 452 520 37,000  Level Oakland Center
Sat 03:49:00 PM 38.8067 -117.9336 74° East 449 517 37,000  Level Oakland Center
Sat 03:50:01 PM 38.8417 -117.7819 73° East 447 514 37,000  Level Oakland Center
Sat 03:51:03 PM 38.8753 -117.6275 74° East 447 514 37,000  Level Oakland Center
Sat 03:52:05 PM 38.9089 -117.4781 74° East 443 510 37,000  Level Oakland Center
Sat 03:53:06 PM 38.9411 -117.3258 75° East 442 509 37,000 333 Level Oakland Center
Sat 03:54:47 PM 38.9947 -117.0789 74° East 441 507 37,900 663 Climbing Salt Center
Sat 03:55:49 PM 39.0264 -116.9269 75° East 441 507 38,800 537 Climbing Salt Center
Sat 03:56:50 PM 39.0661 -116.7442 74° East 441 507 39,000 98 Climbing Salt Center
Sat 03:57:52 PM 39.0961 -116.6039 75° East 448 516 39,000  Level Salt Center
Sat 03:58:54 PM 39.1333 -116.4294 75° East 453 521 39,000  Level Salt Center
Sat 03:59:56 PM 39.1642 -116.2800 75° East 454 522 39,000  Level Salt Center
Sat 04:00:57 PM 39.2003 -116.1056 75° East 453 521 39,000  Level Salt Center
Sat 04:01:59 PM 39.2319 -115.9519 75° East 461 531 39,000  Level Salt Center
Sat 04:03:01 PM 39.2692 -115.7731 75° East 463 533 39,000  Level Salt Center
Sat 04:04:02 PM 39.3008 -115.6175 75° East 468 539 39,000  Level Salt Center
Sat 04:05:04 PM 39.3325 -115.4642 75° East 465 535 39,000  Level Salt Center
Sat 04:06:06 PM 39.3678 -115.2858 76° East 460 529 39,000  Level Salt Center
Sat 04:07:08 PM 39.3981 -115.1322 76° East 461 531 39,000  Level Salt Center
Sat 04:08:09 PM 39.4333 -114.9542 76° East 460 529 39,000  Level Salt Center
Sat 04:09:11 PM 39.4656 -114.7969 75° East 470 541 39,000  Level Salt Center
Sat 04:10:13 PM 39.5003 -114.6164 76° East 464 534 39,000  Level Salt Center
Sat 04:11:15 PM 39.5300 -114.4625 76° East 462 532 39,000  Level Salt Center
Sat 04:12:16 PM 39.5606 -114.3006 76° East 460 529 39,000  Level Salt Center
Sat 04:13:18 PM 39.5911 -114.1369 76° East 466 536 39,000  Level Salt Center
Sat 04:14:20 PM 39.6222 -113.9703 76° East 473 544 39,000  Level Salt Center
Sat 04:15:22 PM 39.6539 -113.8022 76° East 480 552 39,000  Level Salt Center
Sat 04:16:24 PM 39.6908 -113.5997 77° East 481 554 39,000  Level Salt Center
Sat 04:17:25 PM 39.7217 -113.4297 77° East 483 556 39,000  Level Salt Center
Sat 04:18:27 PM 39.7525 -113.2675 76° East 482 555 39,000  Level Salt Center
Sat 04:19:29 PM 39.7817 -113.0994 77° East 479 551 39,000  Level Salt Center
Sat 04:20:31 PM 39.8106 -112.9294 77° East 481 554 39,000  Level Salt Center
Sat 04:21:32 PM 39.8467 -112.7314 77° East 474 545 39,000  Level Salt Center
Sat 04:22:34 PM 39.8753 -112.5639 77° East 475 547 39,000  Level Salt Center
Sat 04:23:36 PM 39.9047 -112.3981 77° East 473 544 39,000  Level Salt Center
Sat 04:24:38 PM 39.9328 -112.2325 77° East 473 544 39,000  Level Salt Center
Sat 04:25:39 PM 39.9603 -112.0667 78° East 471 542 39,000  Level Salt Center
Sat 04:26:41 PM 39.9878 -111.9019 78° East 469 540 39,000  Level Salt Center
Sat 04:27:43 PM 40.0211 -111.7036 78° East 470 541 39,000  Level Salt Center
Sat 04:28:45 PM 40.0489 -111.5394 77° East 468 539 39,000  Level Salt Center
Sat 04:29:47 PM 40.0753 -111.3728 78° East 471 542 39,000  Level Salt Center
Sat 04:30:48 PM 40.1031 -111.2069 78° East 470 541 39,000  Level Salt Center
Sat 04:31:50 PM 40.1292 -111.0406 78° East 471 542 39,000  Level Salt Center
Sat 04:32:52 PM 40.1561 -110.8653 79° East 478 550 39,000  Level Salt Center
Sat 04:33:54 PM 40.1847 -110.6722 79° East 484 557 39,000  Level Salt Center
Sat 04:34:56 PM 40.2106 -110.5100 78° East 479 551 39,000  Level Salt Center
Sat 04:35:58 PM 40.2406 -110.3200 78° East 477 549 39,000  Level Salt Center
Sat 04:36:59 PM 40.2650 -110.1567 79° East 477 549 39,000  Level Salt Center
Sat 04:38:01 PM 40.2939 -109.9650 79° East 479 551 39,000  Level Salt Center
Sat 04:39:03 PM 40.3186 -109.7989 79° East 484 557 39,000  Level Salt Center
Sat 04:40:05 PM 40.3422 -109.6322 79° East 485 558 39,000  Level Salt Center
Sat 04:41:07 PM 40.3708 -109.4361 79° East 488 562 39,000  Level Salt Center
Sat 04:42:09 PM 40.3950 -109.2692 79° East 486 559 39,000  Level Salt Center
Sat 04:43:11 PM 40.4219 -109.0739 80° East 487 560 39,000  Level Salt Center
Sat 04:44:12 PM 40.4461 -108.9044 79° East 491 565 39,000  Level Salt Center
Sat 04:45:14 PM 40.4708 -108.7247 80° East 492 566 39,000  Level Salt Center
Sat 04:46:16 PM 40.4978 -108.5272 80° East 494 568 39,000  Level Salt Center
Sat 04:47:18 PM 40.5211 -108.3589 80° East 493 567 39,000  Level Salt Center
Sat 04:48:20 PM 40.5475 -108.1606 80° East 495 570 39,000  Level Salt Center
Sat 04:49:22 PM 40.5694 -107.9883 80° East 498 573 39,000  Level Salt Center
Sat 04:50:24 PM 40.5961 -107.7861 80° East 505 581 39,000  Level Salt Center
Sat 04:51:25 PM 40.6178 -107.6119 81° East 505 581 39,000  Level Salt Center
Sat 04:52:27 PM 40.6431 -107.4136 80° East 496 571 39,000  Level Salt Center
Sat 04:53:52 PM 40.6669 -107.2156 81° East 495 570 39,000  Level Denver Center
Sat 04:54:55 PM 40.6958 -106.9986 80° East 495 570 39,000  Level Denver Center
Sat 04:55:57 PM 40.7167 -106.8194 81° East 494 568 39,000  Level Denver Center
Sat 04:56:59 PM 40.7381 -106.6389 81° East 494 568 39,000  Level Denver Center
Sat 04:58:13 PM 40.7606 -106.4447 81° East 496 571 39,000  Level Denver Center
Sat 04:59:16 PM 40.7867 -106.2122 81° East 501 577 39,000  Level Denver Center
Sat 05:00:18 PM 40.8089 -106.0231 81° East 506 582 39,000  Level Denver Center
Sat 05:01:20 PM 40.8297 -105.8417 81° East 502 578 39,000  Level Denver Center
Sat 05:02:22 PM 40.8489 -105.6606 82° East 499 574 39,000  Level Denver Center
Sat 05:03:24 PM 40.8689 -105.4758 82° East 505 581 39,000  Level Denver Center
Sat 05:04:38 PM 40.8919 -105.2536 82° East 507 583 39,000  Level Denver Center
Sat 05:05:40 PM 40.9156 -105.0303 82° East 508 585 39,000  Level Denver Center
Sat 05:06:42 PM 40.9344 -104.8492 82° East 501 577 39,000  Level Denver Center
Sat 05:07:45 PM 40.9531 -104.6714 82° East 490 564 39,000  Level Denver Center
Sat 05:08:47 PM 40.9708 -104.4903 83° East 495 570 39,000  Level Denver Center
Sat 05:09:49 PM 40.9878 -104.3106 83° East 493 567 39,000  Level Denver Center
Sat 05:10:51 PM 41.0072 -104.1133 82° East 488 562 39,000  Level Denver Center
Sat 05:11:53 PM 41.0264 -103.9164 83° East 486 559 39,000  Level Denver Center
Sat 05:13:07 PM 41.0419 -103.7467 83° East 487 560 39,000  Level Denver Center
Sat 05:14:09 PM 41.0622 -103.5203 83° East 488 562 39,000  Level Denver Center
Sat 05:15:11 PM 41.0772 -103.3489 83° East 491 565 39,000  Level Denver Center
Sat 05:16:13 PM 41.0958 -103.1503 83° East 487 560 39,000  Level Denver Center
Sat 05:17:16 PM 41.1114 -102.9617 84° East 489 563 39,000  Level Denver Center
Sat 05:18:18 PM 41.1261 -102.7914 83° East 486 559 39,000  Level Denver Center
Sat 05:19:20 PM 41.1428 -102.5900 84° East 491 565 39,000  Level Denver Center
Sat 05:20:22 PM 41.1572 -102.4181 84° East 490 564 39,000  Level Denver Center
Sat 05:21:24 PM 41.1739 -102.2167 84° East 493 567 39,000  Level Denver Center
Sat 05:22:26 PM 41.1892 -102.0411 83° East 498 573 39,000  Level Denver Center
Sat 05:23:28 PM 41.2039 -101.8375 84° East 497 572 39,000  Level Denver Center
Sat 05:24:30 PM 41.2158 -101.6625 85° East 497 572 39,000  Level Denver Center
Sat 05:25:32 PM 41.2300 -101.4867 84° East 499 574 39,000  Level Denver Center
Sat 05:26:34 PM 41.2433 -101.2814 85° East 498 573 39,000  Level Denver Center
Sat 05:27:36 PM 41.2556 -101.1064 85° East 496 571 39,000  Level Denver Center
Sat 05:28:50 PM 41.2689 -100.9031 85° East 492 566 39,000  Level Denver Center
Sat 05:29:53 PM 41.2828 -100.7028 85° East 485 558 39,000  Level Denver Center
Sat 05:30:55 PM 41.2958 -100.5036 85° East 482 555 39,000  Level Denver Center
Sat 05:31:57 PM 41.3067 -100.3336 85° East 481 554 39,000  Level Denver Center
Sat 05:33:11 PM 41.3192 -100.1336 85° East 483 556 39,000  Level Denver Center
Sat 05:34:13 PM 41.3325 -99.9056 85° East 484 557 39,000  Level Denver Center
Sat 05:35:16 PM 41.3419 -99.7331 86° East 486 559 39,000  Level Denver Center
Sat 05:36:18 PM 41.3514 -99.5675 86° East 488 562 39,000  Level Denver Center
Sat 05:37:20 PM 41.3642 -99.3506 85° East 488 562 39,000  Level Denver Center
Sat 05:38:22 PM 41.3725 -99.1675 86° East 490 564 39,000  Level Denver Center
Sat 05:39:24 PM 41.3825 -98.9867 86° East 487 560 39,000  Level Denver Center
Sat 05:40:12 PM 41.3875 -98.8661 87° East 484 557 39,000  Level Minneapolis Center
Sat 05:41:13 PM 41.3969 -98.6894 86° East 481 554 39,000  Level Minneapolis Center
Sat 05:42:14 PM 41.4081 -98.4761 86° East 481 554 39,000  Level Minneapolis Center
Sat 05:43:16 PM 41.4150 -98.3058 87° East 480 552 39,000  Level Minneapolis Center
Sat 05:44:17 PM 41.4222 -98.1281 87° East 480 552 39,000  Level Minneapolis Center
Sat 05:45:18 PM 41.4300 -97.9442 87° East 482 555 39,000  Level Minneapolis Center
Sat 05:46:19 PM 41.4375 -97.7656 87° East 482 555 39,000  Level Minneapolis Center
Sat 05:47:21 PM 41.4447 -97.5861 87° East 485 558 39,000  Level Minneapolis Center
Sat 05:48:22 PM 41.4519 -97.4064 87° East 486 559 39,000  Level Minneapolis Center
Sat 05:49:23 PM 41.4586 -97.2269 87° East 486 559 39,000  Level Minneapolis Center
Sat 05:50:24 PM 41.4642 -97.0461 88° East 486 559 39,000  Level Minneapolis Center
Sat 05:51:26 PM 41.4700 -96.8675 87° East 485 558 39,000  Level Minneapolis Center
Sat 05:52:27 PM 41.4756 -96.6911 88° East 479 551 39,000  Level Minneapolis Center
Sat 05:53:28 PM 41.4825 -96.4806 87° East 473 544 39,000  Level Minneapolis Center
Sat 05:54:29 PM 41.4853 -96.3097 89° East 473 544 39,000  Level Minneapolis Center
Sat 05:55:31 PM 41.4906 -96.1369 88° East 468 539 39,000  Level Minneapolis Center
Sat 05:56:32 PM 41.4953 -95.9653 88° East 462 532 39,000  Level Minneapolis Center
Sat 05:57:33 PM 41.5000 -95.7964 88° East 456 525 39,000  Level Minneapolis Center
Sat 05:58:34 PM 41.5036 -95.6092 88° East 461 531 39,000  Level Minneapolis Center
Sat 05:59:37 PM 41.5069 -95.4361 88° East 464 534 39,000  Level Minneapolis Center
Sat 06:00:39 PM 41.5097 -95.2628 89° East 467 537 39,000  Level Minneapolis Center
Sat 06:01:40 PM 41.5133 -95.0903 88° East 466 536 39,000  Level Minneapolis Center
Sat 06:02:41 PM 41.5164 -94.9175 89° East 466 536 39,000  Level Minneapolis Center
Sat 06:03:42 PM 41.5189 -94.7450 89° East 465 535 39,000  Level Minneapolis Center
Sat 06:04:43 PM 41.5197 -94.5725 90° East 464 534 39,000  Level Minneapolis Center
Sat 06:05:45 PM 41.5203 -94.3994 90° East 465 535 39,000  Level Minneapolis Center
Sat 06:06:46 PM 41.5231 -94.2186 89° East 465 535 39,000  Level Minneapolis Center
Sat 06:07:47 PM 41.5242 -94.0469 89° East 464 534 39,000  Level Minneapolis Center
Sat 06:08:48 PM 41.5253 -93.8775 89° East 462 532 39,000  Level Minneapolis Center
Sat 06:09:49 PM 41.5269 -93.7058 89° East 463 533 39,000  Level Minneapolis Center
Sat 06:10:50 PM 41.5283 -93.4967 89° East 470 541 39,000  Level Minneapolis Center
Sat 06:11:52 PM 41.5297 -93.3194 89° East 476 548 39,000 -341 Level Minneapolis Center
Sat 06:12:53 PM 41.5192 -93.1481 95° East 471 542 38,300 -836 Descending Minneapolis Center
Sat 06:13:54 PM 41.5036 -92.9756 97° East 470 541 37,300 -639 Descending Minneapolis Center
Sat 06:14:55 PM 41.4881 -92.8036 97° East 468 539 37,000 -590 Descending Minneapolis Center
Sat 06:15:56 PM 41.4733 -92.6286 96° East 473 544 36,100 -878 Descending Minneapolis Center
Sat 06:16:58 PM 41.4575 -92.4564 97° East 472 543 35,200 -878 Descending Minneapolis Center
Sat 06:17:59 PM 41.4414 -92.2817 97° East 474 545 34,300 -934 Descending Minneapolis Center
Sat 06:19:00 PM 41.4247 -92.1067 97° East 477 549 33,300 -857 Descending Minneapolis Center
Sat 06:19:30 PM 41.4139 -91.9889 97° East 476 548 33,000 -527 Descending Chicago Center
Sat 06:20:31 PM 41.3978 -91.8164 97° East 475 547 32,500 -732 Descending Chicago Center
Sat 06:21:33 PM 41.3811 -91.6461 97° East 472 543 31,500 -726 Descending Chicago Center
Sat 06:22:35 PM 41.3642 -91.4708 97° East 480 552 31,000 -244 Descending Chicago Center
Sat 06:23:36 PM 41.3450 -91.2828 98° East 480 552 31,000 -439 Level Chicago Center
Sat 06:24:38 PM 41.3258 -91.1072 98° East 480 552 30,100 -919 Descending Chicago Center
Sat 06:25:40 PM 41.3075 -90.9272 98° East 487 560 29,100 -1,210 Descending Chicago Center
Sat 06:26:42 PM 41.2892 -90.7494 98° East 486 559 27,600 -2,341 Descending Chicago Center
Sat 06:27:43 PM 41.2700 -90.5756 98° East 478 550 24,300 -1,756 Descending Chicago Center
Sat 06:28:45 PM 41.2519 -90.4036 98° East 470 541 24,000 -145 Descending Chicago Center
Sat 06:29:47 PM 41.2292 -90.2003 98° East 464 534 24,000  Level Chicago Center
Sat 06:30:48 PM 41.2100 -90.0275 98° East 469 540 24,000 -780 Level Chicago Center
Sat 06:31:50 PM 41.1908 -89.8553 98° East 469 540 22,400 -2,177 Descending Chicago Center
Sat 06:32:52 PM 41.1714 -89.6889 99° East 458 527 19,500 -2,634 Descending Chicago Center
Sat 06:33:53 PM 41.1639 -89.5275 93° East 441 507 17,000 -2,341 Descending Chicago Center
Sat 06:34:55 PM 41.1750 -89.3742 84° East 420 483 14,700 -1,597 Descending Chicago Center
Sat 06:35:57 PM 41.1853 -89.2225 85° East 414 476 13,700 -1,073 Descending Chicago Center
Sat 06:36:58 PM 41.1950 -89.0622 85° East 413 475 12,500 -1,122 Descending Chicago Center
Sat 06:38:00 PM 41.2078 -88.9164 83° East 405 466 11,400 -968 Descending Chicago Center
Sat 06:39:02 PM 41.2706 -88.7950 55° Northeast 402 463 10,500 -1,171 Descending Chicago Center
Sat 06:40:03 PM 41.3472 -88.6706 51° Northeast 365 420 9,000 -1,317 Descending Chicago Center
Sat 06:41:05 PM 41.4303 -88.6556 North 306 352 7,800 -1,306 Descending Chicago Center
Sat 06:42:07 PM 41.4728 -88.5622 59° Northeast 309 356 6,300 -878 Descending Chicago Center
Sat 06:43:08 PM 41.5011 -88.4569 70° East 303 349 6,000 -146 Descending Chicago Center
Sat 06:44:10 PM 41.5142 -88.3461 81° East 304 350 6,000  Level Chicago Center
Sat 06:45:12 PM 41.5289 -88.2356 80° East 302 348 6,000 -244 Level Chicago Center
Sat 06:46:13 PM 41.5442 -88.1256 79° East 300 345 5,500 -439 Descending Chicago Center
Sat 06:47:15 PM 41.5589 -88.0161 80° East 297 342 5,100 -585 Descending Chicago Center
Sat 06:48:16 PM 41.5739 -87.9069 80° East 297 342 4,300 -878 Descending Chicago Center
Sat 06:49:18 PM 41.5900 -87.7833 80° East 289 333 3,300 -629 Descending Chicago Center
Sat 06:50:20 PM 41.6031 -87.6897 79° East 273 314 3,000 -146 Descending Chicago Center
Sat 06:51:21 PM 41.6428 -87.6203 53° Northeast 254 292 3,000  Level Chicago Center
Sat 06:52:23 PM 41.6847 -87.6022 18° North 208 239 3,000 -195 Level Chicago Center
Sat 06:53:24 PM 41.7153 -87.6444 314° West 186 214 2,600 -390 Descending Chicago Center
Sat 06:54:26 PM 41.7678 -87.6356 North 187 215 2,200 -290 Descending Chicago Center
Sat 06:55:28 PM 41.8125 -87.6578 340° North 179 206 2,000 -244 Descending Chicago Center
Sat 06:56:29 PM 41.8258 -87.7061 290° West 139 160 1,700 -439 Descending Chicago Center
Sat 06:57:31 PM 41.8006 -87.7383 224° Southwest 147 169 1,100 -581 Descending Chicago Center

Login

Don't have an account? Register now (free) for customized features, flight alerts, and more!